createdAt,value
2022-11-01T00:01:07.976Z,13.15
2022-11-01T00:03:37.146Z,13.20
2022-11-01T00:06:03.883Z,13.11
2022-11-01T00:08:30.507Z,13.24
2022-11-01T00:11:08.961Z,13.25
2022-11-01T00:13:35.750Z,13.23
2022-11-01T00:16:02.371Z,13.29
2022-11-01T00:18:28.988Z,13.42
2022-11-01T00:20:55.648Z,13.33
2022-11-01T00:23:24.611Z,13.29
2022-11-01T00:25:51.390Z,13.31
2022-11-01T00:28:18.070Z,13.33
2022-11-01T00:30:44.847Z,13.34
2022-11-01T00:33:11.529Z,13.46
2022-11-01T00:35:38.191Z,13.53
2022-11-01T00:38:06.098Z,13.35
2022-11-01T00:40:33.059Z,13.44
2022-11-01T00:42:59.729Z,13.41
2022-11-01T00:45:26.376Z,13.47
2022-11-01T00:47:53.022Z,13.40
2022-11-01T00:50:19.638Z,13.49
2022-11-01T00:52:46.423Z,13.31
2022-11-01T00:55:12.996Z,13.28
2022-11-01T00:57:39.604Z,13.30
2022-11-01T01:00:06.855Z,13.21
2022-11-01T01:02:33.752Z,13.24
2022-11-01T01:05:00.371Z,13.30
2022-11-01T01:07:26.989Z,13.35
2022-11-01T01:09:53.988Z,13.26
2022-11-01T01:12:20.699Z,13.35
2022-11-01T01:14:47.351Z,13.20
2022-11-01T01:17:14.424Z,13.36
2022-11-01T01:19:41.448Z,13.19
2022-11-01T01:22:10.411Z,13.16
2022-11-01T01:24:37.054Z,13.10
2022-11-01T01:27:03.807Z,13.06
2022-11-01T01:29:30.560Z,13.07
2022-11-01T01:31:57.188Z,13.06
2022-11-01T01:34:24.817Z,12.98
2022-11-01T01:36:51.433Z,13.06
2022-11-01T01:39:18.060Z,12.87
2022-11-01T01:42:00.986Z,12.91
2022-11-01T01:44:46.430Z,13.00
2022-11-01T01:47:24.642Z,12.93
2022-11-01T01:49:55.097Z,12.95
2022-11-01T01:52:22.549Z,12.88
2022-11-01T01:54:51.066Z,13.09
2022-11-01T01:57:18.352Z,12.95
2022-11-01T01:59:45.435Z,12.95
2022-11-01T02:02:12.969Z,13.08
2022-11-01T02:04:44.847Z,13.14
2022-11-01T02:07:12.051Z,13.17
2022-11-01T02:09:39.188Z,13.29
2022-11-01T02:12:06.423Z,13.23
2022-11-01T02:14:33.002Z,13.24
2022-11-01T02:16:59.543Z,13.15
2022-11-01T02:19:47.327Z,13.15
2022-11-01T02:22:29.929Z,13.06
2022-11-01T02:25:21.077Z,13.01
2022-11-01T02:28:24.573Z,13.02
2022-11-01T02:30:51.056Z,13.06
2022-11-01T02:33:51.696Z,13.12
2022-11-01T02:36:25.776Z,13.10
2022-11-01T02:39:27.010Z,13.11
2022-11-01T02:42:14.078Z,13.16
2022-11-01T02:44:45.571Z,13.07
2022-11-01T02:47:14.109Z,13.02
2022-11-01T02:49:47.210Z,13.16
2022-11-01T02:52:17.997Z,13.33
2022-11-01T02:54:50.345Z,13.23
2022-11-01T02:57:16.861Z,13.25
2022-11-01T02:59:45.362Z,13.30
2022-11-01T03:02:21.448Z,13.37
2022-11-01T03:04:48.458Z,13.41
2022-11-01T03:07:16.322Z,13.45
2022-11-01T03:09:43.162Z,13.56
2022-11-01T03:12:20.506Z,13.48
2022-11-01T03:15:20.930Z,13.37
2022-11-01T03:17:53.158Z,13.43
2022-11-01T03:20:49.998Z,13.40
2022-11-01T03:23:21.651Z,13.35
2022-11-01T03:25:54.821Z,13.35
2022-11-01T03:28:23.041Z,13.46
2022-11-01T03:31:10.170Z,13.42
2022-11-01T03:33:40.402Z,13.49
2022-11-01T03:36:13.576Z,13.49
2022-11-01T03:38:45.352Z,13.50
2022-11-01T03:41:15.274Z,13.55
2022-11-01T03:43:41.932Z,13.60
2022-11-01T03:46:09.246Z,13.65
2022-11-01T03:48:40.012Z,13.62
2022-11-01T03:51:09.346Z,13.78
2022-11-01T03:53:35.920Z,13.67
2022-11-01T03:56:02.549Z,13.73
2022-11-01T03:58:41.494Z,13.75
2022-11-01T04:01:09.474Z,13.74
2022-11-01T04:03:36.331Z,13.81
2022-11-01T04:06:03.359Z,13.73
2022-11-01T04:08:29.976Z,13.67
2022-11-01T04:10:58.082Z,13.82
2022-11-01T04:13:24.982Z,13.74
2022-11-01T04:16:10.170Z,13.74
2022-11-01T04:18:55.578Z,13.80
2022-11-01T04:21:24.328Z,13.87
2022-11-01T04:23:51.431Z,13.83
2022-11-01T04:26:20.661Z,13.88
2022-11-01T04:28:59.773Z,14.12
2022-11-01T04:31:30.791Z,13.99
2022-11-01T04:33:58.680Z,13.99
2022-11-01T04:36:25.789Z,13.93
2022-11-01T04:39:00.105Z,13.81
2022-11-01T04:41:28.280Z,13.75
2022-11-01T04:43:57.025Z,13.77
2022-11-01T04:46:23.740Z,13.76
2022-11-01T04:48:50.458Z,13.56
2022-11-01T04:51:17.094Z,13.55
2022-11-01T04:53:43.915Z,13.70
2022-11-01T04:56:12.137Z,13.75
2022-11-01T04:58:43.077Z,13.75
2022-11-01T05:01:13.467Z,13.84
2022-11-01T05:03:40.308Z,13.66
2022-11-01T05:06:07.078Z,13.61
2022-11-01T05:08:33.819Z,13.52
2022-11-01T05:11:00.436Z,13.60
2022-11-01T05:13:27.087Z,13.41
2022-11-01T05:16:18.263Z,13.30
2022-11-01T05:18:42.658Z,13.15
2022-11-01T05:21:09.244Z,13.14
2022-11-01T05:23:35.848Z,13.21
2022-11-01T05:26:02.463Z,13.21
2022-11-01T05:28:29.023Z,13.25
2022-11-01T05:30:58.949Z,13.22
2022-11-01T05:33:25.740Z,13.21
2022-11-01T05:35:52.471Z,13.14
2022-11-01T05:38:19.059Z,13.00
2022-11-01T05:40:45.664Z,12.94
2022-11-01T05:43:12.318Z,13.27
2022-11-01T05:45:38.925Z,13.34
2022-11-01T05:48:05.742Z,13.31
2022-11-01T05:50:32.588Z,13.18
2022-11-01T05:53:07.706Z,13.01
2022-11-01T05:55:35.679Z,13.02
2022-11-01T05:58:02.640Z,13.29
2022-11-01T06:00:29.210Z,13.35
2022-11-01T06:02:58.006Z,13.18
2022-11-01T06:05:25.428Z,13.10
2022-11-01T06:07:52.030Z,12.93
2022-11-01T06:10:18.641Z,12.84
2022-11-01T06:12:45.229Z,13.11
2022-11-01T06:15:11.967Z,13.17
2022-11-01T06:17:38.981Z,13.30
2022-11-01T06:20:06.008Z,13.28
2022-11-01T06:22:35.886Z,13.27
2022-11-01T06:25:02.678Z,13.26
2022-11-01T06:27:29.252Z,13.27
2022-11-01T06:29:55.913Z,13.37
2022-11-01T06:32:22.720Z,13.37
2022-11-01T06:34:52.267Z,13.62
2022-11-01T06:37:18.824Z,13.64
2022-11-01T06:39:45.409Z,13.64
2022-11-01T06:42:12.063Z,13.69
2022-11-01T06:44:38.627Z,13.75
2022-11-01T06:47:05.197Z,13.68
2022-11-01T06:49:31.855Z,13.72
2022-11-01T06:51:58.698Z,13.85
2022-11-01T06:54:25.802Z,13.86
2022-11-01T06:56:52.461Z,13.69
2022-11-01T06:59:19.006Z,13.72
2022-11-01T07:01:45.817Z,13.83
2022-11-01T07:04:12.588Z,13.98
2022-11-01T07:06:39.199Z,14.14
2022-11-01T07:09:05.852Z,14.39
2022-11-01T07:11:33.599Z,14.28
2022-11-01T07:14:00.358Z,14.58
2022-11-01T07:16:27.338Z,14.83
2022-11-01T07:18:54.317Z,14.63
2022-11-01T07:21:21.097Z,14.64
2022-11-01T07:23:47.757Z,14.64
2022-11-01T07:26:14.519Z,14.71
2022-11-01T07:28:41.148Z,14.76
2022-11-01T07:31:10.474Z,14.91
2022-11-01T07:33:37.139Z,14.90
2022-11-01T07:36:04.303Z,14.77
2022-11-01T07:38:31.086Z,15.03
2022-11-01T07:40:57.793Z,14.99
2022-11-01T07:43:24.520Z,15.09
2022-11-01T07:45:51.587Z,15.20
2022-11-01T07:48:19.205Z,15.35
2022-11-01T07:50:46.126Z,15.24
2022-11-01T07:53:14.057Z,15.39
2022-11-01T07:55:41.133Z,15.36
2022-11-01T07:58:08.037Z,15.43
2022-11-01T08:03:02.474Z,15.52
2022-11-01T08:05:30.248Z,15.44
2022-11-01T08:07:57.092Z,15.37
2022-11-01T08:10:23.957Z,15.70
2022-11-01T08:12:50.560Z,15.58
2022-11-01T08:15:19.465Z,15.71
2022-11-01T08:17:46.177Z,15.76
2022-11-01T08:20:13.225Z,15.68
2022-11-01T08:22:40.762Z,15.76
2022-11-01T08:25:15.448Z,15.75
2022-11-01T08:27:42.123Z,15.92
2022-11-01T08:30:09.186Z,16.06
2022-11-01T08:32:35.792Z,15.89
2022-11-01T08:35:02.329Z,15.87
2022-11-01T08:37:28.973Z,15.96
2022-11-01T08:39:55.611Z,15.97
2022-11-01T08:42:22.265Z,15.97
2022-11-01T08:44:48.934Z,15.89
2022-11-01T08:47:15.604Z,15.89
2022-11-01T08:49:42.211Z,15.91
2022-11-01T08:52:08.773Z,15.73
2022-11-01T08:54:35.491Z,15.72
2022-11-01T08:57:04.976Z,15.63
2022-11-01T08:59:31.554Z,15.57
2022-11-01T09:01:58.363Z,15.56
2022-11-01T09:04:25.024Z,15.38
2022-11-01T09:06:51.619Z,15.18
2022-11-01T09:09:18.192Z,15.10
2022-11-01T09:11:44.792Z,14.96
2022-11-01T09:14:11.442Z,15.00
2022-11-01T09:16:38.110Z,15.16
2022-11-01T09:19:05.757Z,15.22
2022-11-01T09:21:34.814Z,15.09
2022-11-01T09:24:02.044Z,15.10
2022-11-01T09:26:29.256Z,14.93
2022-11-01T09:28:58.354Z,14.96
2022-11-01T09:31:25.329Z,15.09
2022-11-01T09:33:54.957Z,15.08
2022-11-01T09:36:21.785Z,14.91
2022-11-01T09:38:48.368Z,14.81
2022-11-01T09:41:20.935Z,14.88
2022-11-01T09:43:47.956Z,14.64
2022-11-01T09:46:16.803Z,14.63
2022-11-01T09:48:44.329Z,14.62
2022-11-01T09:51:16.479Z,14.64
2022-11-01T09:53:43.167Z,14.63
2022-11-01T09:56:12.408Z,14.47
2022-11-01T09:59:05.372Z,14.48
2022-11-01T10:02:11.695Z,14.38
2022-11-01T10:04:38.358Z,14.32
2022-11-01T10:07:11.767Z,14.35
2022-11-01T10:10:04.051Z,14.18
2022-11-01T10:12:55.616Z,14.20
2022-11-01T10:15:41.075Z,14.10
2022-11-01T10:18:23.269Z,13.96
2022-11-01T10:20:49.964Z,13.84
2022-11-01T10:23:17.443Z,13.86
2022-11-01T10:25:49.015Z,14.10
2022-11-01T10:28:19.863Z,14.11
2022-11-01T10:30:53.558Z,14.18
2022-11-01T10:33:26.316Z,14.28
2022-11-01T10:36:00.023Z,14.28
2022-11-01T10:41:29.976Z,14.61
2022-11-01T10:44:01.566Z,14.48
2022-11-01T10:46:31.981Z,14.50
2022-11-01T10:49:01.222Z,14.48
2022-11-01T10:51:29.411Z,14.46
2022-11-01T10:54:00.224Z,14.31
2022-11-01T10:56:35.487Z,14.20
2022-11-01T10:59:05.202Z,14.14
2022-11-01T11:01:39.304Z,14.31
2022-11-01T11:07:24.960Z,14.22
2022-11-01T11:09:51.701Z,14.26
2022-11-01T11:12:23.149Z,14.15
2022-11-01T11:14:58.979Z,14.31
2022-11-01T11:17:29.991Z,14.42
2022-11-01T11:20:06.965Z,14.46
2022-11-01T11:22:38.083Z,14.52
2022-11-01T11:25:05.077Z,14.39
2022-11-01T11:27:33.701Z,14.46
2022-11-01T11:30:08.497Z,14.48
2022-11-01T11:32:40.850Z,14.39
2022-11-01T11:35:13.479Z,14.40
2022-11-01T11:37:40.693Z,14.24
2022-11-01T11:40:25.747Z,14.22
2022-11-01T11:42:54.504Z,14.32
2022-11-01T11:45:23.305Z,14.26
2022-11-01T11:47:50.734Z,14.20
2022-11-01T11:50:20.618Z,14.26
2022-11-01T11:52:57.957Z,14.30
2022-11-01T11:55:41.973Z,14.27
2022-11-01T11:58:20.211Z,14.29
2022-11-01T12:01:08.053Z,14.25
2022-11-01T12:03:50.147Z,14.26
2022-11-01T12:06:20.106Z,14.37
2022-11-01T12:09:00.081Z,14.49
2022-11-01T12:11:39.148Z,14.75
2022-11-01T12:14:17.579Z,14.75
2022-11-01T12:16:44.257Z,14.49
2022-11-01T12:19:32.195Z,14.30
2022-11-01T12:22:01.716Z,14.27
2022-11-01T12:24:42.052Z,14.29
2022-11-01T12:27:15.824Z,14.29
2022-11-01T12:29:57.549Z,14.43
2022-11-01T12:32:28.825Z,14.40
2022-11-01T12:34:58.228Z,14.26
2022-11-01T12:37:35.406Z,14.19
2022-11-01T12:40:05.473Z,14.42
2022-11-01T12:42:47.849Z,14.22
2022-11-01T12:45:32.900Z,14.41
2022-11-01T12:48:04.153Z,14.55
2022-11-01T12:50:46.272Z,14.45
2022-11-01T12:53:29.705Z,14.21
2022-11-01T12:55:58.096Z,14.33
2022-11-01T12:58:33.453Z,14.39
2022-11-01T13:01:08.004Z,14.50
2022-11-01T13:03:40.157Z,14.43
2022-11-01T13:06:19.086Z,14.36
2022-11-01T13:09:04.504Z,14.25
2022-11-01T13:12:00.542Z,14.37
2022-11-01T13:14:38.757Z,14.68
2022-11-01T13:17:16.126Z,14.64
2022-11-01T13:19:43.101Z,14.56
2022-11-01T13:22:32.193Z,14.42
2022-11-01T13:25:05.298Z,14.26
2022-11-01T13:27:39.818Z,14.40
2022-11-01T13:30:13.436Z,14.34
2022-11-01T13:32:50.105Z,14.46
2022-11-01T13:35:37.016Z,14.39
2022-11-01T13:38:10.447Z,14.27
2022-11-01T13:40:54.617Z,14.03
2022-11-01T13:43:38.182Z,14.18
2022-11-01T13:46:29.661Z,14.14
2022-11-01T13:49:08.454Z,14.32
2022-11-01T13:51:51.317Z,14.22
2022-11-01T13:54:42.722Z,14.24
2022-11-01T13:57:17.742Z,14.27
2022-11-01T13:59:55.240Z,14.26
2022-11-01T14:02:28.369Z,14.09
2022-11-01T14:05:04.009Z,13.96
2022-11-01T14:07:36.432Z,13.98
2022-11-01T14:10:18.972Z,14.15
2022-11-01T14:13:10.254Z,14.35
2022-11-01T14:15:58.366Z,14.25
2022-11-01T14:18:27.709Z,14.26
2022-11-01T14:20:55.854Z,14.29
2022-11-01T14:23:28.496Z,14.04
2022-11-01T14:26:20.242Z,13.85
2022-11-01T14:28:48.465Z,13.92
2022-11-01T14:31:18.409Z,13.80
2022-11-01T14:33:48.328Z,13.91
2022-11-01T14:36:16.158Z,13.94
2022-11-01T14:38:46.940Z,13.92
2022-11-01T14:41:14.278Z,13.79
2022-11-01T14:43:50.285Z,13.83
2022-11-01T14:46:27.255Z,13.77
2022-11-01T14:49:11.112Z,14.13
2022-11-01T14:51:46.140Z,14.12
2022-11-01T14:54:39.957Z,13.97
2022-11-01T14:57:32.149Z,13.88
2022-11-01T15:00:02.094Z,13.61
2022-11-01T15:02:29.489Z,13.69
2022-11-01T15:05:01.546Z,13.64
2022-11-01T15:07:31.505Z,13.59
2022-11-01T15:10:09.576Z,13.64
2022-11-01T15:12:52.815Z,13.50
2022-11-01T15:15:22.137Z,13.49
2022-11-01T15:17:54.775Z,13.37
2022-11-01T15:20:21.761Z,13.35
2022-11-01T15:22:48.922Z,13.24
2022-11-01T15:25:26.426Z,13.03
2022-11-01T15:27:54.741Z,12.92
2022-11-01T15:30:21.276Z,12.72
2022-11-01T15:32:53.824Z,12.63
2022-11-01T15:35:25.590Z,12.55
2022-11-01T15:37:53.834Z,12.91
2022-11-01T15:40:32.536Z,13.07
2022-11-01T15:43:00.641Z,12.99
2022-11-01T15:45:35.756Z,13.01
2022-11-01T15:48:08.823Z,12.90
2022-11-01T15:50:37.594Z,12.87
2022-11-01T15:53:08.680Z,12.90
2022-11-01T15:55:39.941Z,12.82
2022-11-01T15:58:13.714Z,12.68
2022-11-01T16:00:49.850Z,12.52
2022-11-01T16:03:30.475Z,12.70
2022-11-01T16:05:59.918Z,12.49
2022-11-01T16:08:34.115Z,12.25
2022-11-01T16:11:01.535Z,12.43
2022-11-01T16:13:29.330Z,12.42
2022-11-01T16:16:03.971Z,12.58
2022-11-01T16:18:39.193Z,12.08
2022-11-01T16:21:18.180Z,11.86
2022-11-01T16:24:15.585Z,11.64
2022-11-01T16:26:55.690Z,11.45
2022-11-01T16:29:51.002Z,11.22
2022-11-01T16:32:30.868Z,11.07
2022-11-01T16:34:59.650Z,10.94
2022-11-01T16:37:28.530Z,10.75
2022-11-01T16:39:56.325Z,10.55
2022-11-01T16:42:24.469Z,10.41
2022-11-01T16:44:55.601Z,10.23
2022-11-01T16:47:22.602Z,10.30
2022-11-01T16:49:51.327Z,10.17
2022-11-01T16:52:18.444Z,10.16
2022-11-01T16:54:48.600Z,10.02
2022-11-01T16:57:20.835Z,10.12
2022-11-01T16:59:47.588Z,10.34
2022-11-01T17:02:29.735Z,10.35
2022-11-01T17:05:18.600Z,10.50
2022-11-01T17:07:45.836Z,10.23
2022-11-01T17:10:19.719Z,10.00
2022-11-01T17:12:46.638Z,9.85
2022-11-01T17:15:14.200Z,9.73
2022-11-01T17:17:42.964Z,9.68
2022-11-01T17:20:15.476Z,9.66
2022-11-01T17:22:42.608Z,9.80
2022-11-01T17:25:17.009Z,9.79
2022-11-01T17:27:43.914Z,9.75
2022-11-01T17:30:10.948Z,9.58
2022-11-01T17:32:37.588Z,9.38
2022-11-01T17:35:04.704Z,9.33
2022-11-01T17:37:32.354Z,9.31
2022-11-01T17:39:59.826Z,9.31
2022-11-01T17:42:26.596Z,9.19
2022-11-01T17:44:53.275Z,9.18
2022-11-01T17:47:20.383Z,9.18
2022-11-01T17:49:47.016Z,9.37
2022-11-01T17:52:13.572Z,9.24
2022-11-01T17:54:40.278Z,9.10
2022-11-01T17:57:06.982Z,9.01
2022-11-01T17:59:33.641Z,9.07
2022-11-01T18:02:00.592Z,9.17
2022-11-01T18:04:27.295Z,9.42
2022-11-01T18:06:53.937Z,9.43
2022-11-01T18:09:24.647Z,9.26
2022-11-01T18:12:03.675Z,9.42
2022-11-01T18:14:41.760Z,9.63
2022-11-01T18:17:20.796Z,9.32
2022-11-01T18:20:02.268Z,9.09
2022-11-01T18:22:47.156Z,9.00
2022-11-01T18:25:31.487Z,9.49
2022-11-01T18:28:03.211Z,9.78
2022-11-01T18:30:32.089Z,9.53
2022-11-01T18:33:05.064Z,9.45
2022-11-01T18:35:35.754Z,9.68
2022-11-01T18:38:28.821Z,10.13
2022-11-01T18:40:59.181Z,9.97
2022-11-01T18:43:38.791Z,10.00
2022-11-01T18:46:24.378Z,10.58
2022-11-01T18:49:01.198Z,10.65
2022-11-01T18:51:30.187Z,10.74
2022-11-01T18:54:20.487Z,10.73
2022-11-01T18:56:51.231Z,10.89
2022-11-01T18:59:39.162Z,10.91
2022-11-01T19:02:11.750Z,10.90
2022-11-01T19:04:41.099Z,10.86
2022-11-01T19:07:12.556Z,10.83
2022-11-01T19:09:52.249Z,10.63
2022-11-01T19:12:28.012Z,10.23
2022-11-01T19:15:17.257Z,10.27
2022-11-01T19:17:45.007Z,10.30
2022-11-01T19:20:30.372Z,10.13
2022-11-01T19:23:12.226Z,10.06
2022-11-01T19:25:38.865Z,9.94
2022-11-01T19:28:12.911Z,9.68
2022-11-01T19:30:39.546Z,9.69
2022-11-01T19:33:29.925Z,9.42
2022-11-01T19:35:57.883Z,9.42
2022-11-01T19:38:24.515Z,9.30
2022-11-01T19:40:52.776Z,9.26
2022-11-01T19:43:21.255Z,9.10
2022-11-01T19:45:50.893Z,9.02
2022-11-01T19:48:21.281Z,9.27
2022-11-01T19:50:48.343Z,9.94
2022-11-01T19:53:22.313Z,9.87
2022-11-01T19:56:01.486Z,9.99
2022-11-01T19:58:30.028Z,10.44
2022-11-01T20:01:20.065Z,10.47
2022-11-01T20:03:52.618Z,10.41
2022-11-01T20:06:31.390Z,10.47
2022-11-01T20:09:03.342Z,10.42
2022-11-01T20:11:31.958Z,10.78
2022-11-01T20:13:58.768Z,10.68
2022-11-01T20:16:31.404Z,10.78
2022-11-01T20:18:58.255Z,10.75
2022-11-01T20:21:24.883Z,10.86
2022-11-01T20:23:51.519Z,10.82
2022-11-01T20:26:18.546Z,10.70
2022-11-01T20:28:50.093Z,10.66
2022-11-01T20:31:16.846Z,10.77
2022-11-01T20:33:46.618Z,10.92
2022-11-01T20:36:13.360Z,10.84
2022-11-01T20:38:40.215Z,10.89
2022-11-01T20:41:07.181Z,10.86
2022-11-01T20:43:33.819Z,10.84
2022-11-01T20:46:00.469Z,10.80
2022-11-01T20:48:27.115Z,10.84
2022-11-01T20:50:56.296Z,10.86
2022-11-01T20:53:29.508Z,10.70
2022-11-01T20:55:56.535Z,10.74
2022-11-01T20:58:23.199Z,10.73
2022-11-01T21:00:52.707Z,10.91
2022-11-01T21:03:21.179Z,10.75
2022-11-01T21:05:49.161Z,10.68
2022-11-01T21:08:33.595Z,10.74
2022-11-01T21:11:03.537Z,10.66
2022-11-01T21:13:30.304Z,10.63
2022-11-01T21:15:58.919Z,10.68
2022-11-01T21:18:55.783Z,10.59
2022-11-01T21:21:52.384Z,10.38
2022-11-01T21:24:34.614Z,10.29
2022-11-01T21:27:10.205Z,10.20
2022-11-01T21:29:39.799Z,10.25
2022-11-01T21:32:39.828Z,10.46
2022-11-01T21:35:19.803Z,10.45
2022-11-01T21:37:50.738Z,10.11
2022-11-01T21:40:28.616Z,10.21
2022-11-01T21:42:56.126Z,10.27
2022-11-01T21:45:31.088Z,10.04
2022-11-01T21:48:03.352Z,10.06
2022-11-01T21:50:30.238Z,10.20
2022-11-01T21:52:56.846Z,10.10
2022-11-01T21:55:23.463Z,10.29
2022-11-01T21:57:50.029Z,10.23
2022-11-01T22:00:19.195Z,10.24
2022-11-01T22:02:48.587Z,10.35
2022-11-01T22:05:15.217Z,10.19
2022-11-01T22:07:41.892Z,10.30
2022-11-01T22:10:09.091Z,10.15
2022-11-01T22:12:35.660Z,10.26
2022-11-01T22:15:02.286Z,10.29
2022-11-01T22:17:28.890Z,10.19
2022-11-01T22:19:55.697Z,10.22
2022-11-01T22:22:22.290Z,10.24
2022-11-01T22:24:48.901Z,10.09
2022-11-01T22:27:15.757Z,9.81
2022-11-01T22:29:42.393Z,9.71
2022-11-01T22:32:09.076Z,9.74
2022-11-01T22:34:35.720Z,10.16
2022-11-01T22:37:09.526Z,9.97
2022-11-01T22:39:36.130Z,10.07
2022-11-01T22:42:03.318Z,9.95
2022-11-01T22:44:31.570Z,9.94
2022-11-01T22:47:03.014Z,9.97
2022-11-01T22:49:40.681Z,9.93
2022-11-01T22:52:26.802Z,9.92
2022-11-01T22:55:04.488Z,10.12
2022-11-01T22:57:38.383Z,10.04
2022-11-01T23:00:38.916Z,10.15
2022-11-01T23:03:36.184Z,9.99
2022-11-01T23:06:28.612Z,10.06
2022-11-01T23:09:00.311Z,9.90
2022-11-01T23:11:47.910Z,10.00
2022-11-01T23:14:56.223Z,9.80
2022-11-01T23:17:24.333Z,9.90
2022-11-01T23:19:53.525Z,9.95
2022-11-01T23:22:22.642Z,10.01
2022-11-01T23:24:50.876Z,9.90
2022-11-01T23:27:18.953Z,10.02
2022-11-01T23:29:49.217Z,10.25
2022-11-01T23:32:18.486Z,10.16
2022-11-01T23:34:45.697Z,10.02
2022-11-01T23:37:22.207Z,10.21
2022-11-01T23:39:48.956Z,10.41
2022-11-01T23:42:25.837Z,10.17
2022-11-01T23:44:54.052Z,10.01
2022-11-01T23:47:34.017Z,9.95
2022-11-01T23:50:11.456Z,10.04
2022-11-01T23:52:45.973Z,10.15
2022-11-01T23:55:16.632Z,9.96
2022-11-01T23:57:43.288Z,10.23
